sensor_id;sensor_type;location;lat;lon;timestamp;temperature;humidity
4406;DHT22;2216;53.806;11.598;2023-12-20T00:01:26;6.70;92.30
4406;DHT22;2216;53.806;11.598;2023-12-20T00:03:52;6.60;92.30
4406;DHT22;2216;53.806;11.598;2023-12-20T00:06:18;6.60;92.20
4406;DHT22;2216;53.806;11.598;2023-12-20T00:08:44;6.60;92.20
4406;DHT22;2216;53.806;11.598;2023-12-20T00:11:09;6.60;92.20
4406;DHT22;2216;53.806;11.598;2023-12-20T00:13:35;6.50;92.20
4406;DHT22;2216;53.806;11.598;2023-12-20T00:16:01;6.50;92.20
4406;DHT22;2216;53.806;11.598;2023-12-20T00:18:26;6.50;92.20
4406;DHT22;2216;53.806;11.598;2023-12-20T00:20:52;6.50;92.20
4406;DHT22;2216;53.806;11.598;2023-12-20T00:23:18;6.40;92.20
4406;DHT22;2216;53.806;11.598;2023-12-20T00:25:44;6.40;92.20
4406;DHT22;2216;53.806;11.598;2023-12-20T00:28:09;6.40;92.20
4406;DHT22;2216;53.806;11.598;2023-12-20T00:30:35;6.30;92.20
4406;DHT22;2216;53.806;11.598;2023-12-20T00:33:01;6.30;92.10
4406;DHT22;2216;53.806;11.598;2023-12-20T00:35:27;6.30;92.20
4406;DHT22;2216;53.806;11.598;2023-12-20T00:37:53;6.20;92.10
4406;DHT22;2216;53.806;11.598;2023-12-20T00:40:19;6.20;92.10
4406;DHT22;2216;53.806;11.598;2023-12-20T00:42:46;6.20;92.10
4406;DHT22;2216;53.806;11.598;2023-12-20T00:45:14;6.10;92.10
4406;DHT22;2216;53.806;11.598;2023-12-20T00:47:40;6.10;92.10
4406;DHT22;2216;53.806;11.598;2023-12-20T00:50:07;6.10;92.40
4406;DHT22;2216;53.806;11.598;2023-12-20T00:52:32;6.00;92.10
4406;DHT22;2216;53.806;11.598;2023-12-20T00:54:58;6.00;92.10
4406;DHT22;2216;53.806;11.598;2023-12-20T00:57:24;6.00;92.10
4406;DHT22;2216;53.806;11.598;2023-12-20T00:59:50;6.00;92.10
4406;DHT22;2216;53.806;11.598;2023-12-20T01:02:16;5.90;92.10
4406;DHT22;2216;53.806;11.598;2023-12-20T01:04:42;5.90;92.10
4406;DHT22;2216;53.806;11.598;2023-12-20T01:07:08;5.90;92.10
4406;DHT22;2216;53.806;11.598;2023-12-20T01:09:34;5.80;92.10
4406;DHT22;2216;53.806;11.598;2023-12-20T01:11:59;5.80;92.10
4406;DHT22;2216;53.806;11.598;2023-12-20T01:14:25;5.80;92.10
4406;DHT22;2216;53.806;11.598;2023-12-20T01:16:51;5.80;92.20
4406;DHT22;2216;53.806;11.598;2023-12-20T01:19:16;5.70;92.10
4406;DHT22;2216;53.806;11.598;2023-12-20T01:21:42;5.70;92.10
4406;DHT22;2216;53.806;11.598;2023-12-20T01:24:08;5.70;92.10
4406;DHT22;2216;53.806;11.598;2023-12-20T01:26:34;5.70;92.10
4406;DHT22;2216;53.806;11.598;2023-12-20T01:29:00;5.60;92.10
4406;DHT22;2216;53.806;11.598;2023-12-20T01:31:26;5.60;92.10
4406;DHT22;2216;53.806;11.598;2023-12-20T01:33:53;5.60;92.10
4406;DHT22;2216;53.806;11.598;2023-12-20T01:36:18;5.60;92.10
4406;DHT22;2216;53.806;11.598;2023-12-20T01:38:45;5.60;92.20
4406;DHT22;2216;53.806;11.598;2023-12-20T01:41:10;5.50;92.10
4406;DHT22;2216;53.806;11.598;2023-12-20T01:43:36;5.50;92.20
4406;DHT22;2216;53.806;11.598;2023-12-20T01:46:02;5.50;92.20
4406;DHT22;2216;53.806;11.598;2023-12-20T01:48:29;5.50;92.20
4406;DHT22;2216;53.806;11.598;2023-12-20T01:50:59;5.50;92.20
4406;DHT22;2216;53.806;11.598;2023-12-20T01:53:25;5.40;92.20
4406;DHT22;2216;53.806;11.598;2023-12-20T01:55:54;5.40;92.20
4406;DHT22;2216;53.806;11.598;2023-12-20T01:58:22;5.40;92.20
4406;DHT22;2216;53.806;11.598;2023-12-20T02:00:49;5.40;92.20
4406;DHT22;2216;53.806;11.598;2023-12-20T02:03:16;5.40;92.20
4406;DHT22;2216;53.806;11.598;2023-12-20T02:05:42;5.40;92.20
4406;DHT22;2216;53.806;11.598;2023-12-20T02:08:08;5.40;92.20
4406;DHT22;2216;53.806;11.598;2023-12-20T02:10:34;5.30;92.20
4406;DHT22;2216;53.806;11.598;2023-12-20T02:13:00;5.30;92.20
4406;DHT22;2216;53.806;11.598;2023-12-20T02:15:26;5.40;92.30
4406;DHT22;2216;53.806;11.598;2023-12-20T02:17:51;5.40;92.40
4406;DHT22;2216;53.806;11.598;2023-12-20T02:20:17;5.40;92.40
4406;DHT22;2216;53.806;11.598;2023-12-20T02:22:43;5.40;92.50
4406;DHT22;2216;53.806;11.598;2023-12-20T02:25:09;5.40;92.50
4406;DHT22;2216;53.806;11.598;2023-12-20T02:27:35;5.50;92.50
4406;DHT22;2216;53.806;11.598;2023-12-20T02:30:01;5.70;92.60
4406;DHT22;2216;53.806;11.598;2023-12-20T02:32:27;5.50;92.50
4406;DHT22;2216;53.806;11.598;2023-12-20T02:34:55;5.60;92.60
4406;DHT22;2216;53.806;11.598;2023-12-20T02:37:21;5.60;92.60
4406;DHT22;2216;53.806;11.598;2023-12-20T02:39:46;5.60;92.60
4406;DHT22;2216;53.806;11.598;2023-12-20T02:42:12;5.70;92.60
4406;DHT22;2216;53.806;11.598;2023-12-20T02:44:38;5.70;92.60
4406;DHT22;2216;53.806;11.598;2023-12-20T02:47:04;5.70;92.60
4406;DHT22;2216;53.806;11.598;2023-12-20T02:49:30;5.70;92.60
4406;DHT22;2216;53.806;11.598;2023-12-20T02:51:56;5.80;92.60
4406;DHT22;2216;53.806;11.598;2023-12-20T02:54:21;5.80;92.60
4406;DHT22;2216;53.806;11.598;2023-12-20T02:56:48;5.80;92.60
4406;DHT22;2216;53.806;11.598;2023-12-20T02:59:13;5.90;92.60
4406;DHT22;2216;53.806;11.598;2023-12-20T03:01:43;5.90;92.60
4406;DHT22;2216;53.806;11.598;2023-12-20T03:04:10;5.90;92.60
4406;DHT22;2216;53.806;11.598;2023-12-20T03:06:36;5.90;92.60
4406;DHT22;2216;53.806;11.598;2023-12-20T03:09:03;5.90;92.60
4406;DHT22;2216;53.806;11.598;2023-12-20T03:11:28;5.90;92.60
4406;DHT22;2216;53.806;11.598;2023-12-20T03:13:55;6.00;92.60
4406;DHT22;2216;53.806;11.598;2023-12-20T03:16:21;5.90;92.60
4406;DHT22;2216;53.806;11.598;2023-12-20T03:18:47;5.90;92.50
4406;DHT22;2216;53.806;11.598;2023-12-20T03:21:12;6.00;92.60
4406;DHT22;2216;53.806;11.598;2023-12-20T03:23:38;6.00;92.50
4406;DHT22;2216;53.806;11.598;2023-12-20T03:26:07;6.00;92.50
4406;DHT22;2216;53.806;11.598;2023-12-20T03:28:33;5.90;92.40
4406;DHT22;2216;53.806;11.598;2023-12-20T03:30:59;5.90;92.50
4406;DHT22;2216;53.806;11.598;2023-12-20T03:33:24;6.00;92.50
4406;DHT22;2216;53.806;11.598;2023-12-20T03:35:50;5.90;92.50
4406;DHT22;2216;53.806;11.598;2023-12-20T03:38:16;5.90;92.50
4406;DHT22;2216;53.806;11.598;2023-12-20T03:40:42;6.00;92.50
4406;DHT22;2216;53.806;11.598;2023-12-20T03:43:07;5.90;92.60
4406;DHT22;2216;53.806;11.598;2023-12-20T03:45:33;6.00;92.60
4406;DHT22;2216;53.806;11.598;2023-12-20T03:47:59;6.00;92.60
4406;DHT22;2216;53.806;11.598;2023-12-20T03:50:27;6.00;92.60
4406;DHT22;2216;53.806;11.598;2023-12-20T03:52:54;6.00;92.60
4406;DHT22;2216;53.806;11.598;2023-12-20T03:55:19;6.00;92.60
4406;DHT22;2216;53.806;11.598;2023-12-20T03:57:45;6.00;92.60
4406;DHT22;2216;53.806;11.598;2023-12-20T04:00:11;6.00;92.60
4406;DHT22;2216;53.806;11.598;2023-12-20T04:02:41;6.00;92.60
4406;DHT22;2216;53.806;11.598;2023-12-20T04:05:08;6.10;92.70
4406;DHT22;2216;53.806;11.598;2023-12-20T04:07:38;6.10;92.70
4406;DHT22;2216;53.806;11.598;2023-12-20T04:10:04;6.10;93.00
4406;DHT22;2216;53.806;11.598;2023-12-20T04:12:31;6.10;92.70
4406;DHT22;2216;53.806;11.598;2023-12-20T04:14:57;6.10;92.70
4406;DHT22;2216;53.806;11.598;2023-12-20T04:17:23;6.20;92.70
4406;DHT22;2216;53.806;11.598;2023-12-20T04:19:52;6.20;92.70
4406;DHT22;2216;53.806;11.598;2023-12-20T04:22:18;6.20;92.70
4406;DHT22;2216;53.806;11.598;2023-12-20T04:24:44;6.20;92.70
4406;DHT22;2216;53.806;11.598;2023-12-20T04:27:10;6.20;92.70
4406;DHT22;2216;53.806;11.598;2023-12-20T04:29:36;6.20;92.60
4406;DHT22;2216;53.806;11.598;2023-12-20T04:32:02;6.20;92.60
4406;DHT22;2216;53.806;11.598;2023-12-20T04:34:29;6.20;92.60
4406;DHT22;2216;53.806;11.598;2023-12-20T04:36:55;6.20;92.60
4406;DHT22;2216;53.806;11.598;2023-12-20T04:39:20;6.20;92.60
4406;DHT22;2216;53.806;11.598;2023-12-20T04:41:47;6.30;92.60
4406;DHT22;2216;53.806;11.598;2023-12-20T04:44:13;6.20;92.60
4406;DHT22;2216;53.806;11.598;2023-12-20T04:46:39;6.30;92.60
4406;DHT22;2216;53.806;11.598;2023-12-20T04:49:05;6.30;92.60
4406;DHT22;2216;53.806;11.598;2023-12-20T04:51:33;6.30;92.60
4406;DHT22;2216;53.806;11.598;2023-12-20T04:54:00;6.30;92.60
4406;DHT22;2216;53.806;11.598;2023-12-20T04:56:25;6.30;92.60
4406;DHT22;2216;53.806;11.598;2023-12-20T04:58:51;6.30;92.60
4406;DHT22;2216;53.806;11.598;2023-12-20T05:01:17;6.30;92.60
4406;DHT22;2216;53.806;11.598;2023-12-20T05:03:43;6.30;92.60
4406;DHT22;2216;53.806;11.598;2023-12-20T05:06:09;6.30;92.60
4406;DHT22;2216;53.806;11.598;2023-12-20T05:08:36;6.30;92.60
4406;DHT22;2216;53.806;11.598;2023-12-20T05:11:02;6.30;92.60
4406;DHT22;2216;53.806;11.598;2023-12-20T05:13:27;6.30;92.60
4406;DHT22;2216;53.806;11.598;2023-12-20T05:15:53;6.30;92.60
4406;DHT22;2216;53.806;11.598;2023-12-20T05:18:20;6.30;92.60
4406;DHT22;2216;53.806;11.598;2023-12-20T05:20:46;6.30;92.60
4406;DHT22;2216;53.806;11.598;2023-12-20T05:23:12;6.30;92.60
4406;DHT22;2216;53.806;11.598;2023-12-20T05:25:38;6.30;92.60
4406;DHT22;2216;53.806;11.598;2023-12-20T05:28:04;6.30;92.60
4406;DHT22;2216;53.806;11.598;2023-12-20T05:30:30;6.30;92.60
4406;DHT22;2216;53.806;11.598;2023-12-20T05:32:56;6.30;92.90
4406;DHT22;2216;53.806;11.598;2023-12-20T05:35:22;6.40;92.60
4406;DHT22;2216;53.806;11.598;2023-12-20T05:37:49;6.30;92.60
4406;DHT22;2216;53.806;11.598;2023-12-20T05:40:15;6.30;92.60
4406;DHT22;2216;53.806;11.598;2023-12-20T05:42:41;6.30;92.50
4406;DHT22;2216;53.806;11.598;2023-12-20T05:45:07;6.30;92.90
4406;DHT22;2216;53.806;11.598;2023-12-20T05:47:34;6.40;92.60
4406;DHT22;2216;53.806;11.598;2023-12-20T05:50:00;6.30;92.60
4406;DHT22;2216;53.806;11.598;2023-12-20T05:52:25;6.30;92.50
4406;DHT22;2216;53.806;11.598;2023-12-20T05:54:51;6.40;92.60
4406;DHT22;2216;53.806;11.598;2023-12-20T05:57:17;6.30;92.50
4406;DHT22;2216;53.806;11.598;2023-12-20T05:59:43;6.40;92.60
4406;DHT22;2216;53.806;11.598;2023-12-20T06:02:09;6.40;92.90
4406;DHT22;2216;53.806;11.598;2023-12-20T06:04:34;6.40;92.50
4406;DHT22;2216;53.806;11.598;2023-12-20T06:07:00;6.40;92.50
4406;DHT22;2216;53.806;11.598;2023-12-20T06:09:28;6.30;92.50
4406;DHT22;2216;53.806;11.598;2023-12-20T06:11:55;6.30;92.50
4406;DHT22;2216;53.806;11.598;2023-12-20T06:14:21;6.40;92.50
4406;DHT22;2216;53.806;11.598;2023-12-20T06:16:46;6.30;92.50
4406;DHT22;2216;53.806;11.598;2023-12-20T06:19:12;6.30;92.50
4406;DHT22;2216;53.806;11.598;2023-12-20T06:21:38;6.30;92.50
4406;DHT22;2216;53.806;11.598;2023-12-20T06:24:04;6.30;92.50
4406;DHT22;2216;53.806;11.598;2023-12-20T06:26:30;6.40;92.60
4406;DHT22;2216;53.806;11.598;2023-12-20T06:28:56;6.30;92.50
4406;DHT22;2216;53.806;11.598;2023-12-20T06:31:21;6.30;92.50
4406;DHT22;2216;53.806;11.598;2023-12-20T06:33:47;6.30;92.50
4406;DHT22;2216;53.806;11.598;2023-12-20T06:36:15;6.30;92.50
4406;DHT22;2216;53.806;11.598;2023-12-20T06:38:40;6.30;92.50
4406;DHT22;2216;53.806;11.598;2023-12-20T06:41:07;6.30;92.60
4406;DHT22;2216;53.806;11.598;2023-12-20T06:43:33;6.30;92.50
4406;DHT22;2216;53.806;11.598;2023-12-20T06:46:00;6.30;92.50
4406;DHT22;2216;53.806;11.598;2023-12-20T06:48:26;6.30;92.50
4406;DHT22;2216;53.806;11.598;2023-12-20T06:50:52;6.30;92.50
4406;DHT22;2216;53.806;11.598;2023-12-20T06:53:18;6.30;92.50
4406;DHT22;2216;53.806;11.598;2023-12-20T06:55:44;6.30;92.50
4406;DHT22;2216;53.806;11.598;2023-12-20T06:58:10;6.30;92.50
4406;DHT22;2216;53.806;11.598;2023-12-20T07:00:35;6.30;92.50
4406;DHT22;2216;53.806;11.598;2023-12-20T07:03:01;6.30;92.50
4406;DHT22;2216;53.806;11.598;2023-12-20T07:05:27;6.30;92.50
4406;DHT22;2216;53.806;11.598;2023-12-20T07:07:53;6.30;92.50
4406;DHT22;2216;53.806;11.598;2023-12-20T07:10:19;6.30;92.50
4406;DHT22;2216;53.806;11.598;2023-12-20T07:12:45;6.30;92.50
4406;DHT22;2216;53.806;11.598;2023-12-20T07:15:11;6.30;92.50
4406;DHT22;2216;53.806;11.598;2023-12-20T07:17:37;6.30;92.50
4406;DHT22;2216;53.806;11.598;2023-12-20T07:20:02;6.30;92.50
4406;DHT22;2216;53.806;11.598;2023-12-20T07:22:32;6.30;92.50
4406;DHT22;2216;53.806;11.598;2023-12-20T07:24:59;6.30;92.50
4406;DHT22;2216;53.806;11.598;2023-12-20T07:27:25;6.30;92.50
4406;DHT22;2216;53.806;11.598;2023-12-20T07:29:51;6.30;92.50
4406;DHT22;2216;53.806;11.598;2023-12-20T07:32:17;6.30;92.50
4406;DHT22;2216;53.806;11.598;2023-12-20T07:34:43;6.30;92.60
4406;DHT22;2216;53.806;11.598;2023-12-20T07:37:09;6.30;92.60
4406;DHT22;2216;53.806;11.598;2023-12-20T07:39:37;6.30;92.60
4406;DHT22;2216;53.806;11.598;2023-12-20T07:42:05;6.30;92.60
4406;DHT22;2216;53.806;11.598;2023-12-20T07:44:32;6.30;92.90
4406;DHT22;2216;53.806;11.598;2023-12-20T07:46:57;6.40;92.60
4406;DHT22;2216;53.806;11.598;2023-12-20T07:49:23;6.40;92.60
4406;DHT22;2216;53.806;11.598;2023-12-20T07:51:49;6.40;92.60
4406;DHT22;2216;53.806;11.598;2023-12-20T07:54:15;6.40;92.60
4406;DHT22;2216;53.806;11.598;2023-12-20T07:56:41;6.40;92.60
4406;DHT22;2216;53.806;11.598;2023-12-20T07:59:07;6.40;92.60
4406;DHT22;2216;53.806;11.598;2023-12-20T08:01:33;6.40;92.60
4406;DHT22;2216;53.806;11.598;2023-12-20T08:03:58;6.40;92.70
4406;DHT22;2216;53.806;11.598;2023-12-20T08:06:24;6.40;92.60
4406;DHT22;2216;53.806;11.598;2023-12-20T08:08:50;6.40;92.60
4406;DHT22;2216;53.806;11.598;2023-12-20T08:11:16;6.40;92.60
4406;DHT22;2216;53.806;11.598;2023-12-20T08:13:42;6.40;92.60
4406;DHT22;2216;53.806;11.598;2023-12-20T08:16:08;6.40;92.60
4406;DHT22;2216;53.806;11.598;2023-12-20T08:18:35;6.40;92.60
4406;DHT22;2216;53.806;11.598;2023-12-20T08:21:01;6.50;92.70
4406;DHT22;2216;53.806;11.598;2023-12-20T08:23:27;6.50;92.70
4406;DHT22;2216;53.806;11.598;2023-12-20T08:25:53;6.50;92.70
4406;DHT22;2216;53.806;11.598;2023-12-20T08:28:18;6.50;92.70
4406;DHT22;2216;53.806;11.598;2023-12-20T08:30:45;6.50;92.70
4406;DHT22;2216;53.806;11.598;2023-12-20T08:33:11;6.50;92.70
4406;DHT22;2216;53.806;11.598;2023-12-20T08:35:41;6.60;92.70
4406;DHT22;2216;53.806;11.598;2023-12-20T08:38:06;6.50;92.60
4406;DHT22;2216;53.806;11.598;2023-12-20T08:40:32;6.50;92.60
4406;DHT22;2216;53.806;11.598;2023-12-20T08:42:59;6.50;92.60
4406;DHT22;2216;53.806;11.598;2023-12-20T08:45:25;6.60;92.70
4406;DHT22;2216;53.806;11.598;2023-12-20T08:47:50;6.50;92.60
4406;DHT22;2216;53.806;11.598;2023-12-20T08:50:16;6.50;92.60
4406;DHT22;2216;53.806;11.598;2023-12-20T08:52:42;6.60;92.60
4406;DHT22;2216;53.806;11.598;2023-12-20T08:55:08;6.60;92.60
4406;DHT22;2216;53.806;11.598;2023-12-20T08:57:35;6.60;92.60
4406;DHT22;2216;53.806;11.598;2023-12-20T09:00:02;6.60;92.60
4406;DHT22;2216;53.806;11.598;2023-12-20T09:02:28;6.60;92.60
4406;DHT22;2216;53.806;11.598;2023-12-20T09:04:54;6.60;92.60
4406;DHT22;2216;53.806;11.598;2023-12-20T09:07:24;6.60;92.70
4406;DHT22;2216;53.806;11.598;2023-12-20T09:09:52;6.60;92.70
4406;DHT22;2216;53.806;11.598;2023-12-20T09:12:19;6.60;92.70
4406;DHT22;2216;53.806;11.598;2023-12-20T09:14:49;6.60;92.70
4406;DHT22;2216;53.806;11.598;2023-12-20T09:17:16;6.60;92.70
4406;DHT22;2216;53.806;11.598;2023-12-20T09:19:43;6.60;92.70
4406;DHT22;2216;53.806;11.598;2023-12-20T09:22:10;6.60;92.70
4406;DHT22;2216;53.806;11.598;2023-12-20T09:24:36;6.70;92.70
4406;DHT22;2216;53.806;11.598;2023-12-20T09:27:02;6.70;92.80
4406;DHT22;2216;53.806;11.598;2023-12-20T09:29:29;6.70;92.70
4406;DHT22;2216;53.806;11.598;2023-12-20T09:31:54;6.70;92.70
4406;DHT22;2216;53.806;11.598;2023-12-20T09:34:20;6.70;92.70
4406;DHT22;2216;53.806;11.598;2023-12-20T09:36:46;6.70;92.70
4406;DHT22;2216;53.806;11.598;2023-12-20T09:39:16;6.70;92.70
4406;DHT22;2216;53.806;11.598;2023-12-20T09:41:51;6.80;92.70
4406;DHT22;2216;53.806;11.598;2023-12-20T09:44:21;6.80;92.70
4406;DHT22;2216;53.806;11.598;2023-12-20T09:46:50;6.80;92.80
4406;DHT22;2216;53.806;11.598;2023-12-20T09:49:18;6.80;93.10
4406;DHT22;2216;53.806;11.598;2023-12-20T09:51:46;6.80;92.90
4406;DHT22;2216;53.806;11.598;2023-12-20T09:54:14;6.90;92.80
4406;DHT22;2216;53.806;11.598;2023-12-20T09:56:41;6.80;92.80
4406;DHT22;2216;53.806;11.598;2023-12-20T09:59:07;6.90;92.80
4406;DHT22;2216;53.806;11.598;2023-12-20T10:01:34;6.90;92.80
4406;DHT22;2216;53.806;11.598;2023-12-20T10:04:01;6.90;92.80
4406;DHT22;2216;53.806;11.598;2023-12-20T10:06:32;6.90;92.70
4406;DHT22;2216;53.806;11.598;2023-12-20T10:08:58;6.90;92.70
4406;DHT22;2216;53.806;11.598;2023-12-20T10:11:25;6.90;92.70
4406;DHT22;2216;53.806;11.598;2023-12-20T10:13:50;7.00;92.70
4406;DHT22;2216;53.806;11.598;2023-12-20T10:16:16;6.90;92.70
4406;DHT22;2216;53.806;11.598;2023-12-20T10:18:42;6.90;92.60
4406;DHT22;2216;53.806;11.598;2023-12-20T10:21:07;6.80;92.50
4406;DHT22;2216;53.806;11.598;2023-12-20T10:23:35;6.80;92.50
4406;DHT22;2216;53.806;11.598;2023-12-20T10:26:02;6.80;92.50
4406;DHT22;2216;53.806;11.598;2023-12-20T10:28:33;6.80;92.50
4406;DHT22;2216;53.806;11.598;2023-12-20T10:30:59;6.80;92.50
4406;DHT22;2216;53.806;11.598;2023-12-20T10:33:30;6.80;92.50
4406;DHT22;2216;53.806;11.598;2023-12-20T10:35:57;6.80;92.50
4406;DHT22;2216;53.806;11.598;2023-12-20T10:38:23;6.70;92.50
4406;DHT22;2216;53.806;11.598;2023-12-20T10:40:54;6.70;92.50
4406;DHT22;2216;53.806;11.598;2023-12-20T10:43:26;6.70;92.80
4406;DHT22;2216;53.806;11.598;2023-12-20T10:45:54;6.70;92.50
4406;DHT22;2216;53.806;11.598;2023-12-20T10:48:20;6.70;92.60
4406;DHT22;2216;53.806;11.598;2023-12-20T10:50:47;6.70;92.60
4406;DHT22;2216;53.806;11.598;2023-12-20T10:53:15;6.70;92.60
4406;DHT22;2216;53.806;11.598;2023-12-20T10:55:43;6.70;92.60
4406;DHT22;2216;53.806;11.598;2023-12-20T10:58:10;6.70;92.70
4406;DHT22;2216;53.806;11.598;2023-12-20T11:00:39;6.80;92.70
4406;DHT22;2216;53.806;11.598;2023-12-20T11:03:09;6.70;92.60
4406;DHT22;2216;53.806;11.598;2023-12-20T11:05:50;6.80;92.60
4406;DHT22;2216;53.806;11.598;2023-12-20T11:08:39;6.70;92.60
4406;DHT22;2216;53.806;11.598;2023-12-20T11:14:27;6.70;92.50
4406;DHT22;2216;53.806;11.598;2023-12-20T11:17:23;6.70;92.50
4406;DHT22;2216;53.806;11.598;2023-12-20T11:22:20;6.70;92.50
4406;DHT22;2216;53.806;11.598;2023-12-20T11:24:47;6.70;92.50
4406;DHT22;2216;53.806;11.598;2023-12-20T11:27:14;6.70;92.50
4406;DHT22;2216;53.806;11.598;2023-12-20T11:29:41;6.70;92.50
4406;DHT22;2216;53.806;11.598;2023-12-20T11:35:00;6.60;92.40
4406;DHT22;2216;53.806;11.598;2023-12-20T11:37:46;6.60;92.40
4406;DHT22;2216;53.806;11.598;2023-12-20T11:40:16;6.60;92.50
4406;DHT22;2216;53.806;11.598;2023-12-20T11:42:44;6.60;92.60
4406;DHT22;2216;53.806;11.598;2023-12-20T11:45:19;6.60;92.70
4406;DHT22;2216;53.806;11.598;2023-12-20T11:47:49;6.70;92.80
4406;DHT22;2216;53.806;11.598;2023-12-20T11:50:16;6.70;92.80
4406;DHT22;2216;53.806;11.598;2023-12-20T11:52:45;6.80;92.90
4406;DHT22;2216;53.806;11.598;2023-12-20T11:55:10;6.80;92.90
4406;DHT22;2216;53.806;11.598;2023-12-20T11:57:37;6.80;92.90
4406;DHT22;2216;53.806;11.598;2023-12-20T12:00:03;6.80;92.90
4406;DHT22;2216;53.806;11.598;2023-12-20T12:02:37;6.90;92.90
4406;DHT22;2216;53.806;11.598;2023-12-20T12:05:03;6.90;92.80
4406;DHT22;2216;53.806;11.598;2023-12-20T12:07:31;6.90;92.60
4406;DHT22;2216;53.806;11.598;2023-12-20T12:09:57;6.90;92.60
4406;DHT22;2216;53.806;11.598;2023-12-20T12:12:24;6.80;92.50
4406;DHT22;2216;53.806;11.598;2023-12-20T12:14:51;6.90;92.50
4406;DHT22;2216;53.806;11.598;2023-12-20T12:17:16;6.80;92.50
4406;DHT22;2216;53.806;11.598;2023-12-20T12:19:43;7.00;92.60
4406;DHT22;2216;53.806;11.598;2023-12-20T12:22:10;6.90;92.50
4406;DHT22;2216;53.806;11.598;2023-12-20T12:24:42;6.80;92.40
4406;DHT22;2216;53.806;11.598;2023-12-20T12:27:09;6.80;92.40
4406;DHT22;2216;53.806;11.598;2023-12-20T12:29:36;6.80;92.30
4406;DHT22;2216;53.806;11.598;2023-12-20T12:32:09;6.70;92.30
4406;DHT22;2216;53.806;11.598;2023-12-20T12:34:35;6.70;92.30
4406;DHT22;2216;53.806;11.598;2023-12-20T12:37:03;6.70;92.30
4406;DHT22;2216;53.806;11.598;2023-12-20T12:39:30;6.70;92.30
4406;DHT22;2216;53.806;11.598;2023-12-20T12:41:56;6.70;92.30
4406;DHT22;2216;53.806;11.598;2023-12-20T12:44:22;6.60;92.30
4406;DHT22;2216;53.806;11.598;2023-12-20T12:46:52;6.60;92.30
4406;DHT22;2216;53.806;11.598;2023-12-20T12:49:19;6.60;92.30
4406;DHT22;2216;53.806;11.598;2023-12-20T12:51:47;6.50;92.20
4406;DHT22;2216;53.806;11.598;2023-12-20T12:54:13;6.50;92.20
4406;DHT22;2216;53.806;11.598;2023-12-20T12:56:41;6.50;92.30
4406;DHT22;2216;53.806;11.598;2023-12-20T12:59:06;6.50;92.40
4406;DHT22;2216;53.806;11.598;2023-12-20T13:01:32;6.60;92.40
4406;DHT22;2216;53.806;11.598;2023-12-20T13:03:58;6.50;92.40
4406;DHT22;2216;53.806;11.598;2023-12-20T13:06:24;6.50;92.70
4406;DHT22;2216;53.806;11.598;2023-12-20T13:08:50;6.60;92.50
4406;DHT22;2216;53.806;11.598;2023-12-20T13:11:15;6.60;92.50
4406;DHT22;2216;53.806;11.598;2023-12-20T13:13:41;6.60;92.50
4406;DHT22;2216;53.806;11.598;2023-12-20T13:16:07;6.60;92.50
4406;DHT22;2216;53.806;11.598;2023-12-20T13:18:33;6.60;92.50
4406;DHT22;2216;53.806;11.598;2023-12-20T13:20:59;6.60;92.50
4406;DHT22;2216;53.806;11.598;2023-12-20T13:23:24;6.60;92.50
4406;DHT22;2216;53.806;11.598;2023-12-20T13:25:50;6.60;92.50
4406;DHT22;2216;53.806;11.598;2023-12-20T13:28:16;6.70;92.60
4406;DHT22;2216;53.806;11.598;2023-12-20T13:30:42;6.70;92.60
4406;DHT22;2216;53.806;11.598;2023-12-20T13:33:08;6.70;92.60
4406;DHT22;2216;53.806;11.598;2023-12-20T13:35:34;6.70;92.60
4406;DHT22;2216;53.806;11.598;2023-12-20T13:38:00;6.70;92.50
4406;DHT22;2216;53.806;11.598;2023-12-20T13:40:26;6.70;92.50
4406;DHT22;2216;53.806;11.598;2023-12-20T13:42:53;6.70;92.50
4406;DHT22;2216;53.806;11.598;2023-12-20T13:45:20;6.70;92.40
4406;DHT22;2216;53.806;11.598;2023-12-20T13:47:46;6.60;92.20
4406;DHT22;2216;53.806;11.598;2023-12-20T13:50:11;6.60;92.20
4406;DHT22;2216;53.806;11.598;2023-12-20T13:52:38;6.60;92.20
4406;DHT22;2216;53.806;11.598;2023-12-20T13:55:04;6.60;92.20
4406;DHT22;2216;53.806;11.598;2023-12-20T13:57:33;6.50;92.10
4406;DHT22;2216;53.806;11.598;2023-12-20T13:59:59;6.50;92.20
4406;DHT22;2216;53.806;11.598;2023-12-20T14:02:25;6.50;92.20
4406;DHT22;2216;53.806;11.598;2023-12-20T14:04:52;6.50;92.30
4406;DHT22;2216;53.806;11.598;2023-12-20T14:07:18;6.50;92.30
4406;DHT22;2216;53.806;11.598;2023-12-20T14:09:44;6.50;92.40
4406;DHT22;2216;53.806;11.598;2023-12-20T14:12:11;6.50;92.40
4406;DHT22;2216;53.806;11.598;2023-12-20T14:14:37;6.50;92.40
4406;DHT22;2216;53.806;11.598;2023-12-20T14:17:03;6.60;92.40
4406;DHT22;2216;53.806;11.598;2023-12-20T14:19:32;6.60;92.40
4406;DHT22;2216;53.806;11.598;2023-12-20T14:21:58;6.60;92.40
4406;DHT22;2216;53.806;11.598;2023-12-20T14:24:27;6.60;92.40
4406;DHT22;2216;53.806;11.598;2023-12-20T14:26:53;6.60;92.40
4406;DHT22;2216;53.806;11.598;2023-12-20T14:29:18;6.30;92.30
4406;DHT22;2216;53.806;11.598;2023-12-20T14:31:45;6.60;92.30
4406;DHT22;2216;53.806;11.598;2023-12-20T14:34:11;6.50;92.30
4406;DHT22;2216;53.806;11.598;2023-12-20T14:36:37;6.50;92.20
4406;DHT22;2216;53.806;11.598;2023-12-20T14:39:03;6.50;92.20
4406;DHT22;2216;53.806;11.598;2023-12-20T14:41:30;6.50;92.20
4406;DHT22;2216;53.806;11.598;2023-12-20T14:43:56;6.50;92.20
4406;DHT22;2216;53.806;11.598;2023-12-20T14:46:22;6.40;92.10
4406;DHT22;2216;53.806;11.598;2023-12-20T14:48:47;6.40;92.10
4406;DHT22;2216;53.806;11.598;2023-12-20T14:51:15;6.40;92.20
4406;DHT22;2216;53.806;11.598;2023-12-20T14:53:40;6.40;92.50
4406;DHT22;2216;53.806;11.598;2023-12-20T14:56:07;6.30;92.10
4406;DHT22;2216;53.806;11.598;2023-12-20T14:58:33;6.30;92.10
4406;DHT22;2216;53.806;11.598;2023-12-20T15:00:59;6.30;92.10
4406;DHT22;2216;53.806;11.598;2023-12-20T15:03:26;6.30;92.10
4406;DHT22;2216;53.806;11.598;2023-12-20T15:05:52;6.30;92.10
4406;DHT22;2216;53.806;11.598;2023-12-20T15:08:17;6.20;92.10
4406;DHT22;2216;53.806;11.598;2023-12-20T15:10:43;6.20;92.40
4406;DHT22;2216;53.806;11.598;2023-12-20T15:13:09;6.20;92.10
4406;DHT22;2216;53.806;11.598;2023-12-20T15:15:34;6.20;92.10
4406;DHT22;2216;53.806;11.598;2023-12-20T15:18:00;6.20;92.10
4406;DHT22;2216;53.806;11.598;2023-12-20T15:20:28;6.10;92.10
4406;DHT22;2216;53.806;11.598;2023-12-20T15:22:53;6.10;92.10
4406;DHT22;2216;53.806;11.598;2023-12-20T15:25:20;6.10;92.10
4406;DHT22;2216;53.806;11.598;2023-12-20T15:27:48;6.10;92.40
4406;DHT22;2216;53.806;11.598;2023-12-20T15:30:21;6.10;92.10
4406;DHT22;2216;53.806;11.598;2023-12-20T15:32:48;6.10;92.20
4406;DHT22;2216;53.806;11.598;2023-12-20T15:35:14;6.10;92.30
4406;DHT22;2216;53.806;11.598;2023-12-20T15:37:40;6.10;92.20
4406;DHT22;2216;53.806;11.598;2023-12-20T15:40:10;6.00;92.20
4406;DHT22;2216;53.806;11.598;2023-12-20T15:42:37;6.10;92.20
4406;DHT22;2216;53.806;11.598;2023-12-20T15:45:06;6.10;92.20
4406;DHT22;2216;53.806;11.598;2023-12-20T15:47:34;6.10;92.20
4406;DHT22;2216;53.806;11.598;2023-12-20T15:50:03;6.10;92.20
4406;DHT22;2216;53.806;11.598;2023-12-20T15:52:30;6.10;92.20
4406;DHT22;2216;53.806;11.598;2023-12-20T15:54:56;6.20;92.50
4406;DHT22;2216;53.806;11.598;2023-12-20T15:57:22;6.10;92.20
4406;DHT22;2216;53.806;11.598;2023-12-20T15:59:47;6.10;92.10
4406;DHT22;2216;53.806;11.598;2023-12-20T16:02:15;6.10;92.10
4406;DHT22;2216;53.806;11.598;2023-12-20T16:04:42;6.10;92.10
4406;DHT22;2216;53.806;11.598;2023-12-20T16:07:08;6.10;92.20